createdAt,value
2022-09-30T00:01:57.390Z,3.90
2022-09-30T00:04:26.591Z,4.13
2022-09-30T00:06:56.307Z,4.00
2022-09-30T00:09:24.961Z,3.67
2022-09-30T00:11:53.407Z,3.70
2022-09-30T00:14:23.286Z,3.70
2022-09-30T00:16:53.828Z,4.00
2022-09-30T00:19:22.934Z,3.97
2022-09-30T00:21:51.868Z,4.07
2022-09-30T00:24:20.087Z,4.20
2022-09-30T00:26:48.331Z,3.90
2022-09-30T00:29:16.483Z,4.70
2022-09-30T00:31:44.742Z,4.63
2022-09-30T00:34:14.793Z,4.57
2022-09-30T00:36:45.528Z,5.17
2022-09-30T00:39:17.344Z,4.30
2022-09-30T00:41:49.416Z,4.20
2022-09-30T00:44:57.384Z,5.13
2022-09-30T00:47:46.561Z,4.90
2022-09-30T00:50:39.317Z,5.17
2022-09-30T00:53:13.668Z,4.80
2022-09-30T00:55:51.781Z,4.27
2022-09-30T00:58:27.536Z,4.60
2022-09-30T01:00:56.645Z,4.00
2022-09-30T01:03:25.657Z,3.90
2022-09-30T01:05:55.836Z,4.20
2022-09-30T01:08:25.954Z,4.43
2022-09-30T01:10:54.397Z,4.10
2022-09-30T01:13:27.552Z,4.10
2022-09-30T01:16:21.563Z,4.27
2022-09-30T01:19:00.114Z,4.30
2022-09-30T01:22:07.811Z,4.03
2022-09-30T01:25:06.209Z,3.90
2022-09-30T01:28:07.852Z,4.03
2022-09-30T01:31:03.411Z,3.77
2022-09-30T01:33:43.784Z,4.73
2022-09-30T01:36:26.472Z,4.87
2022-09-30T01:39:11.606Z,4.00
2022-09-30T01:41:46.504Z,3.83
2022-09-30T01:44:20.849Z,4.33
2022-09-30T01:46:56.709Z,4.67
2022-09-30T01:49:33.348Z,4.63
2022-09-30T01:52:10.476Z,4.80
2022-09-30T01:54:44.991Z,4.63
2022-09-30T01:57:19.985Z,4.30
2022-09-30T01:59:55.054Z,4.37
2022-09-30T02:02:29.142Z,3.93
2022-09-30T02:05:02.593Z,4.97
2022-09-30T02:07:39.167Z,6.07
2022-09-30T02:10:15.789Z,5.67
2022-09-30T02:12:48.895Z,6.07
2022-09-30T02:15:22.833Z,5.50
2022-09-30T02:17:58.546Z,5.37
2022-09-30T02:20:33.362Z,6.70
2022-09-30T02:23:08.104Z,6.43
2022-09-30T02:25:43.099Z,6.23
2022-09-30T02:28:18.326Z,5.73
2022-09-30T02:30:50.916Z,5.17
2022-09-30T02:33:25.707Z,5.60
2022-09-30T02:35:57.816Z,5.83
2022-09-30T02:38:32.051Z,5.90
2022-09-30T02:41:06.703Z,5.80
2022-09-30T02:43:36.299Z,5.77
2022-09-30T02:46:09.977Z,5.77
2022-09-30T02:48:46.893Z,5.63
2022-09-30T02:51:21.456Z,4.90
2022-09-30T02:53:58.494Z,5.23
2022-09-30T02:56:35.637Z,6.07
2022-09-30T02:59:03.758Z,5.30
2022-09-30T03:01:32.785Z,6.20
2022-09-30T03:04:07.531Z,5.30
2022-09-30T03:06:37.665Z,4.80
2022-09-30T03:09:06.850Z,5.50
2022-09-30T03:11:36.290Z,4.57
2022-09-30T03:14:33.199Z,4.93
2022-09-30T03:17:31.838Z,5.13
2022-09-30T03:20:17.422Z,5.07
2022-09-30T03:23:07.354Z,5.20
2022-09-30T03:25:49.424Z,5.10
2022-09-30T03:28:26.496Z,5.37
2022-09-30T03:31:05.740Z,5.23
2022-09-30T03:33:46.623Z,5.40
2022-09-30T03:36:25.591Z,5.67
2022-09-30T03:39:03.145Z,5.03
2022-09-30T03:41:38.484Z,6.03
2022-09-30T03:44:13.510Z,5.20
2022-09-30T03:46:45.759Z,5.53
2022-09-30T03:49:20.417Z,5.10
2022-09-30T03:51:51.148Z,5.10
2022-09-30T03:54:23.182Z,5.33
2022-09-30T03:56:52.354Z,5.13
2022-09-30T03:59:25.782Z,5.47
2022-09-30T04:01:54.450Z,5.40
2022-09-30T04:04:24.317Z,6.47
2022-09-30T04:06:54.737Z,7.20
2022-09-30T04:09:23.902Z,8.13
2022-09-30T04:11:52.769Z,9.40
2022-09-30T04:14:21.386Z,11.90
2022-09-30T04:16:53.792Z,11.13
2022-09-30T04:19:22.456Z,9.90
2022-09-30T04:21:54.325Z,7.73
2022-09-30T04:24:26.836Z,7.70
2022-09-30T04:26:55.351Z,6.43
2022-09-30T04:29:24.039Z,6.47
2022-09-30T04:31:52.955Z,6.33
2022-09-30T04:34:21.797Z,5.80
2022-09-30T04:36:50.155Z,7.37
2022-09-30T04:39:20.193Z,6.30
2022-09-30T04:41:48.334Z,6.30
2022-09-30T04:44:18.285Z,7.30
2022-09-30T04:46:46.811Z,6.37
2022-09-30T04:49:15.647Z,7.37
2022-09-30T04:51:46.313Z,6.97
2022-09-30T04:54:16.727Z,6.73
2022-09-30T04:56:46.816Z,7.37
2022-09-30T04:59:15.131Z,6.77
2022-09-30T05:01:44.755Z,6.77
2022-09-30T05:04:13.763Z,6.57
2022-09-30T05:06:42.732Z,7.67
2022-09-30T05:09:11.002Z,8.17
2022-09-30T05:11:42.530Z,7.10
2022-09-30T05:14:14.692Z,7.33
2022-09-30T05:16:44.297Z,6.67
2022-09-30T05:19:12.664Z,7.67
2022-09-30T05:21:45.160Z,8.20
2022-09-30T05:24:15.485Z,8.20
2022-09-30T05:26:47.596Z,6.03
2022-09-30T05:29:20.206Z,7.53
2022-09-30T05:31:48.744Z,6.10
2022-09-30T05:34:20.033Z,11.13
2022-09-30T05:36:48.667Z,13.70
2022-09-30T05:39:19.908Z,11.53
2022-09-30T05:41:49.524Z,8.83
2022-09-30T05:44:19.822Z,6.60
2022-09-30T05:46:48.229Z,6.93
2022-09-30T05:49:17.598Z,5.87
2022-09-30T05:51:46.750Z,5.60
2022-09-30T05:54:16.284Z,7.60
2022-09-30T05:56:44.737Z,6.43
2022-09-30T05:59:13.557Z,6.80
2022-09-30T06:01:43.814Z,5.83
2022-09-30T06:04:12.532Z,6.30
2022-09-30T06:06:41.140Z,6.53
2022-09-30T06:09:09.454Z,6.13
2022-09-30T06:11:37.952Z,6.50
2022-09-30T06:14:06.635Z,5.90
2022-09-30T06:16:34.844Z,6.43
2022-09-30T06:19:06.349Z,5.17
2022-09-30T06:21:37.340Z,8.60
2022-09-30T06:24:09.649Z,6.17
2022-09-30T06:26:39.343Z,6.50
2022-09-30T06:29:07.544Z,6.17
2022-09-30T06:31:36.729Z,4.83
2022-09-30T06:34:09.435Z,5.30
2022-09-30T06:36:40.292Z,4.97
2022-09-30T06:39:12.909Z,5.50
2022-09-30T06:41:44.279Z,5.80
2022-09-30T06:44:14.727Z,8.57
2022-09-30T06:46:53.221Z,8.03
2022-09-30T06:49:23.999Z,5.93
2022-09-30T06:51:53.347Z,7.13
2022-09-30T06:54:24.412Z,6.83
2022-09-30T06:56:54.022Z,5.17
2022-09-30T06:59:23.074Z,8.40
2022-09-30T07:01:51.460Z,6.80
2022-09-30T07:04:20.327Z,7.37
2022-09-30T07:06:50.500Z,9.50
2022-09-30T07:09:19.279Z,5.27
2022-09-30T07:11:48.954Z,7.50
2022-09-30T07:14:17.035Z,6.60
2022-09-30T07:16:46.779Z,5.97
2022-09-30T07:19:17.828Z,7.80
2022-09-30T07:21:46.068Z,6.07
2022-09-30T07:24:15.623Z,9.13
2022-09-30T07:26:45.632Z,9.60
2022-09-30T07:29:14.674Z,9.27
2022-09-30T07:31:42.942Z,6.83
2022-09-30T07:34:11.475Z,7.37
2022-09-30T07:36:42.000Z,6.53
2022-09-30T07:39:12.606Z,7.80
2022-09-30T07:41:45.338Z,5.67
2022-09-30T07:44:16.292Z,6.97
2022-09-30T07:46:45.852Z,6.47
2022-09-30T07:49:25.055Z,6.53
2022-09-30T07:51:55.814Z,6.97
2022-09-30T07:54:27.904Z,6.93
2022-09-30T07:57:09.738Z,6.47
2022-09-30T07:59:47.989Z,6.40
2022-09-30T08:02:19.249Z,6.47
2022-09-30T08:04:48.118Z,6.90
2022-09-30T08:07:19.132Z,6.70
2022-09-30T08:09:47.843Z,6.53
2022-09-30T08:12:18.269Z,6.80
2022-09-30T08:14:47.040Z,6.60
2022-09-30T08:17:16.742Z,7.10
2022-09-30T08:19:45.460Z,6.80
2022-09-30T08:22:15.113Z,7.33
2022-09-30T08:24:43.799Z,6.77
2022-09-30T08:27:13.943Z,7.50
2022-09-30T08:30:04.274Z,6.90
2022-09-30T08:32:32.992Z,7.33
2022-09-30T08:35:01.175Z,7.07
2022-09-30T08:37:32.369Z,7.07
2022-09-30T08:40:01.467Z,6.80
2022-09-30T08:42:43.702Z,7.13
2022-09-30T08:45:24.296Z,8.00
2022-09-30T08:48:01.886Z,7.37
2022-09-30T08:50:36.322Z,7.37
2022-09-30T08:53:10.334Z,6.47
2022-09-30T08:55:44.495Z,7.30
2022-09-30T08:58:23.553Z,7.20
2022-09-30T09:00:59.194Z,7.23
2022-09-30T09:03:31.391Z,7.77
2022-09-30T09:06:14.468Z,7.23
2022-09-30T09:08:55.024Z,7.57
2022-09-30T09:11:43.595Z,6.97
2022-09-30T09:14:26.355Z,6.83
2022-09-30T09:17:09.644Z,7.63
2022-09-30T09:19:49.040Z,9.70
2022-09-30T09:22:24.511Z,6.80
2022-09-30T09:24:54.916Z,6.53
2022-09-30T09:27:32.069Z,7.00
2022-09-30T09:30:07.699Z,7.10
2022-09-30T09:32:40.667Z,7.07
2022-09-30T09:35:16.892Z,6.83
2022-09-30T09:38:14.670Z,7.10
2022-09-30T09:40:57.815Z,6.63
2022-09-30T09:43:37.633Z,6.97
2022-09-30T09:46:16.938Z,7.03
2022-09-30T09:48:51.120Z,6.73
2022-09-30T09:51:27.926Z,6.50
2022-09-30T09:54:00.492Z,6.63
2022-09-30T09:56:32.573Z,7.30
2022-09-30T09:59:10.945Z,7.07
2022-09-30T10:01:42.628Z,6.90
2022-09-30T10:04:27.469Z,6.67
2022-09-30T10:07:00.234Z,5.47
2022-09-30T10:09:34.248Z,5.80
2022-09-30T10:12:30.387Z,5.77
2022-09-30T10:15:03.271Z,5.93
2022-09-30T10:17:34.658Z,7.37
2022-09-30T10:20:08.325Z,6.73
2022-09-30T10:22:38.784Z,6.00
2022-09-30T10:25:25.648Z,6.97
2022-09-30T10:27:58.958Z,6.77
2022-09-30T10:30:43.093Z,6.50
2022-09-30T10:33:22.396Z,5.70
2022-09-30T10:35:56.561Z,5.07
2022-09-30T10:38:29.509Z,5.43
2022-09-30T10:41:01.259Z,5.50
2022-09-30T10:43:34.764Z,6.00
2022-09-30T10:46:26.272Z,5.67
2022-09-30T10:48:56.573Z,6.37
2022-09-30T10:51:35.157Z,6.13
2022-09-30T10:54:04.571Z,6.40
2022-09-30T10:56:53.525Z,6.40
2022-09-30T10:59:35.059Z,5.97
2022-09-30T11:04:56.626Z,6.37
2022-09-30T11:07:33.877Z,6.57
2022-09-30T11:10:08.571Z,6.53
2022-09-30T11:12:45.979Z,7.07
2022-09-30T11:15:20.474Z,5.77
2022-09-30T11:17:56.550Z,6.50
2022-09-30T11:20:31.773Z,6.60
2022-09-30T11:23:11.608Z,6.73
2022-09-30T11:25:49.429Z,6.70
2022-09-30T11:28:37.881Z,4.90
2022-09-30T11:31:15.226Z,5.70
2022-09-30T11:33:57.629Z,5.20
2022-09-30T11:36:32.113Z,5.37
2022-09-30T11:39:19.076Z,4.87
2022-09-30T11:41:56.178Z,4.70
2022-09-30T11:44:35.350Z,6.23
2022-09-30T11:47:27.849Z,5.03
2022-09-30T11:50:10.203Z,10.57
2022-09-30T11:52:50.204Z,4.23
2022-09-30T11:55:57.814Z,3.80
2022-09-30T11:58:47.588Z,4.20
2022-09-30T12:01:24.881Z,4.40
2022-09-30T12:04:07.039Z,4.20
2022-09-30T12:06:44.440Z,3.43
2022-09-30T12:09:24.227Z,3.53
2022-09-30T12:12:01.371Z,3.60
2022-09-30T12:14:38.156Z,3.13
2022-09-30T12:17:12.157Z,3.00
2022-09-30T12:19:46.335Z,3.70
2022-09-30T12:22:20.032Z,3.60
2022-09-30T12:24:48.456Z,3.13
2022-09-30T12:27:25.603Z,3.20
2022-09-30T12:30:18.193Z,3.37
2022-09-30T12:33:12.442Z,3.50
2022-09-30T12:36:01.239Z,4.00
2022-09-30T12:38:43.478Z,3.50
2022-09-30T12:41:28.510Z,3.77
2022-09-30T12:44:33.707Z,3.87
2022-09-30T12:47:17.096Z,3.40
2022-09-30T12:49:47.274Z,3.30
2022-09-30T12:52:24.387Z,4.10
2022-09-30T12:55:02.688Z,4.27
2022-09-30T12:57:37.579Z,3.57
2022-09-30T13:00:17.067Z,3.40
2022-09-30T13:02:49.189Z,3.40
2022-09-30T13:05:59.532Z,3.57
2022-09-30T13:09:17.668Z,4.17
2022-09-30T13:11:47.718Z,3.60
2022-09-30T13:14:35.051Z,3.90
2022-09-30T13:17:28.426Z,3.07
2022-09-30T13:19:58.505Z,3.40
2022-09-30T13:23:00.077Z,3.73
2022-09-30T13:25:29.059Z,3.30
2022-09-30T13:28:32.400Z,3.67
2022-09-30T13:31:16.207Z,4.50
2022-09-30T13:33:48.681Z,4.43
2022-09-30T13:36:28.743Z,4.20
2022-09-30T13:39:21.167Z,4.17
2022-09-30T13:42:00.225Z,4.43
2022-09-30T13:44:40.136Z,4.17
2022-09-30T13:47:19.529Z,4.10
2022-09-30T13:49:58.196Z,3.80
2022-09-30T13:52:29.807Z,3.60
2022-09-30T13:55:03.346Z,3.77
2022-09-30T13:57:46.029Z,3.90
2022-09-30T14:00:21.023Z,3.67
2022-09-30T14:03:16.989Z,4.17
2022-09-30T14:06:00.678Z,3.77
2022-09-30T14:09:00.755Z,3.60
2022-09-30T14:11:42.701Z,3.40
2022-09-30T14:14:51.950Z,3.13
2022-09-30T14:17:47.636Z,2.83
2022-09-30T14:20:40.030Z,2.90
2022-09-30T14:23:19.007Z,2.50
2022-09-30T14:25:58.748Z,3.30
2022-09-30T14:28:40.221Z,2.60
2022-09-30T14:31:15.606Z,3.00
2022-09-30T14:33:50.221Z,2.90
2022-09-30T14:36:22.013Z,3.20
2022-09-30T14:38:59.458Z,2.60
2022-09-30T14:41:32.027Z,2.60
2022-09-30T14:44:06.326Z,2.60
2022-09-30T14:46:41.415Z,2.70
2022-09-30T14:49:16.832Z,2.83
2022-09-30T14:51:49.163Z,2.50
2022-09-30T14:54:29.272Z,2.30
2022-09-30T14:57:01.475Z,2.23
2022-09-30T14:59:33.320Z,2.80
2022-09-30T15:02:04.391Z,2.70
2022-09-30T15:04:39.221Z,2.47
2022-09-30T15:07:12.948Z,2.40
2022-09-30T15:09:44.647Z,2.20
2022-09-30T15:12:15.248Z,2.00
2022-09-30T15:14:51.872Z,2.70
2022-09-30T15:17:21.542Z,2.20
2022-09-30T15:19:50.423Z,1.97
2022-09-30T15:22:20.989Z,2.10
2022-09-30T15:24:54.431Z,2.00
2022-09-30T15:27:25.784Z,1.93
2022-09-30T15:30:02.823Z,2.33
2022-09-30T15:32:32.952Z,1.77
2022-09-30T15:35:07.410Z,2.30
2022-09-30T15:37:36.899Z,1.83
2022-09-30T15:40:34.585Z,1.93
2022-09-30T15:43:08.709Z,2.03
2022-09-30T15:45:39.654Z,1.40
2022-09-30T15:48:29.334Z,1.80
2022-09-30T15:51:01.892Z,1.73
2022-09-30T15:53:33.626Z,2.40
2022-09-30T15:56:18.867Z,1.47
2022-09-30T15:58:57.305Z,1.60
2022-09-30T16:01:28.386Z,1.47
2022-09-30T16:03:59.205Z,2.00
2022-09-30T16:06:32.982Z,2.00
2022-09-30T16:09:04.043Z,1.10
2022-09-30T16:11:38.837Z,1.93
2022-09-30T16:14:11.341Z,1.80
2022-09-30T16:16:44.045Z,1.30
2022-09-30T16:19:19.943Z,1.50
2022-09-30T16:21:52.134Z,1.40
2022-09-30T16:24:47.491Z,1.60
2022-09-30T16:27:35.274Z,1.70
2022-09-30T16:30:08.007Z,1.30
2022-09-30T16:32:46.633Z,1.40
2022-09-30T16:35:20.779Z,1.63
2022-09-30T16:37:51.069Z,1.50
2022-09-30T16:40:25.470Z,1.63
2022-09-30T16:42:56.893Z,6.43
2022-09-30T16:45:41.331Z,2.20
2022-09-30T16:48:16.960Z,1.97
2022-09-30T16:50:49.864Z,2.93
2022-09-30T16:53:17.949Z,2.97
2022-09-30T16:55:48.257Z,4.83
2022-09-30T16:58:20.098Z,6.67
2022-09-30T17:00:51.831Z,4.60
2022-09-30T17:03:22.947Z,13.40
2022-09-30T17:05:52.781Z,4.63
2022-09-30T17:08:23.581Z,4.70
2022-09-30T17:10:51.940Z,4.20
2022-09-30T17:13:21.612Z,3.67
2022-09-30T17:15:51.029Z,2.30
2022-09-30T17:18:19.700Z,2.00
2022-09-30T17:20:53.133Z,2.10
2022-09-30T17:23:24.297Z,4.23
2022-09-30T17:25:54.035Z,16.80
2022-09-30T17:28:23.804Z,10.00
2022-09-30T17:30:53.672Z,7.07
2022-09-30T17:33:22.023Z,3.07
2022-09-30T17:35:59.696Z,2.10
2022-09-30T17:38:32.550Z,2.67
2022-09-30T17:41:18.911Z,2.53
2022-09-30T17:43:49.034Z,8.13
2022-09-30T17:46:21.360Z,11.63
2022-09-30T17:48:50.258Z,3.07
2022-09-30T17:51:20.287Z,2.00
2022-09-30T17:53:51.237Z,2.10
2022-09-30T17:56:22.724Z,2.10
2022-09-30T17:58:53.958Z,2.00
2022-09-30T18:01:23.011Z,2.30
2022-09-30T18:03:53.157Z,1.90
2022-09-30T18:06:22.411Z,2.17
2022-09-30T18:08:54.135Z,1.93
2022-09-30T18:11:25.173Z,1.80
2022-09-30T18:14:02.799Z,1.93
2022-09-30T18:16:36.378Z,1.83
2022-09-30T18:19:07.343Z,2.80
2022-09-30T18:21:37.951Z,3.00
2022-09-30T18:24:09.491Z,2.70
2022-09-30T18:26:39.186Z,3.10
2022-09-30T18:29:10.248Z,4.63
2022-09-30T18:31:40.324Z,16.53
2022-09-30T18:34:09.536Z,38.87
2022-09-30T18:36:38.832Z,14.40
2022-09-30T18:39:15.128Z,10.67
2022-09-30T18:41:46.907Z,22.97
2022-09-30T18:44:20.172Z,25.60
2022-09-30T18:46:49.368Z,22.83
2022-09-30T18:49:18.328Z,16.87
2022-09-30T18:51:48.208Z,16.50
2022-09-30T18:54:16.950Z,14.97
2022-09-30T18:56:52.134Z,5.63
2022-09-30T18:59:24.592Z,4.40
2022-09-30T19:01:54.893Z,11.30
2022-09-30T19:04:26.217Z,8.77
2022-09-30T19:06:55.234Z,19.13
2022-09-30T19:09:28.505Z,19.60
2022-09-30T19:12:00.373Z,13.73
2022-09-30T19:14:31.948Z,14.63
2022-09-30T19:17:03.195Z,27.13
2022-09-30T19:19:38.877Z,21.87
2022-09-30T19:22:12.356Z,17.00
2022-09-30T19:24:45.609Z,32.77
2022-09-30T19:27:16.786Z,33.03
2022-09-30T19:29:50.099Z,8.27
2022-09-30T19:32:23.849Z,5.10
2022-09-30T19:35:06.046Z,5.60
2022-09-30T19:37:37.235Z,6.43
2022-09-30T19:40:20.642Z,4.37
2022-09-30T19:42:52.332Z,8.00
2022-09-30T19:45:26.031Z,5.30
2022-09-30T19:47:57.284Z,6.40
2022-09-30T19:50:28.807Z,4.20
2022-09-30T19:52:57.938Z,3.93
2022-09-30T19:55:29.668Z,3.80
2022-09-30T19:58:00.331Z,5.53
2022-09-30T20:00:33.581Z,18.73
2022-09-30T20:03:04.056Z,5.33
2022-09-30T20:05:33.838Z,14.33
2022-09-30T20:08:03.589Z,5.77
2022-09-30T20:10:34.951Z,6.07
2022-09-30T20:13:04.247Z,7.73
2022-09-30T20:15:54.586Z,5.37
2022-09-30T20:18:24.984Z,4.80
2022-09-30T20:20:55.697Z,4.43
2022-09-30T20:23:28.040Z,3.67
2022-09-30T20:25:57.081Z,3.70
2022-09-30T20:28:25.280Z,3.47
2022-09-30T20:30:57.785Z,3.87
2022-09-30T20:33:26.152Z,3.87
2022-09-30T20:35:55.238Z,3.80
2022-09-30T20:38:27.926Z,4.80
2022-09-30T20:40:58.768Z,4.40
2022-09-30T20:43:30.792Z,4.63
2022-09-30T20:46:02.892Z,4.20
2022-09-30T20:48:33.823Z,5.30
2022-09-30T20:51:02.495Z,4.43
2022-09-30T20:53:31.100Z,3.93
2022-09-30T20:56:02.072Z,3.60
2022-09-30T20:58:30.146Z,3.80
2022-09-30T21:01:05.944Z,3.93
2022-09-30T21:03:36.722Z,4.27
2022-09-30T21:06:05.412Z,4.30
2022-09-30T21:08:34.217Z,4.63
2022-09-30T21:11:03.944Z,4.63
2022-09-30T21:13:32.917Z,4.50
2022-09-30T21:16:04.231Z,4.47
2022-09-30T21:18:33.638Z,4.37
2022-09-30T21:21:03.789Z,3.60
2022-09-30T21:23:33.741Z,3.57
2022-09-30T21:26:03.738Z,4.23
2022-09-30T21:28:32.622Z,4.27
2022-09-30T21:31:15.899Z,5.00
2022-09-30T21:33:45.011Z,5.13
2022-09-30T21:36:13.533Z,4.83
2022-09-30T21:38:42.521Z,5.10
2022-09-30T21:41:10.844Z,5.30
2022-09-30T21:43:39.702Z,5.17
2022-09-30T21:46:17.430Z,5.07
2022-09-30T21:48:47.001Z,5.30
2022-09-30T21:51:16.407Z,5.70
2022-09-30T21:53:45.108Z,5.83
2022-09-30T21:56:14.626Z,5.37
2022-09-30T21:58:43.811Z,6.03
2022-09-30T22:01:14.396Z,6.00
2022-09-30T22:03:44.705Z,7.50
2022-09-30T22:06:14.553Z,6.93
2022-09-30T22:08:44.099Z,7.50
2022-09-30T22:11:15.391Z,8.00
2022-09-30T22:13:45.371Z,8.20
2022-09-30T22:16:20.037Z,8.50
2022-09-30T22:18:48.716Z,8.77
2022-09-30T22:21:17.765Z,7.87
2022-09-30T22:23:48.604Z,8.03
2022-09-30T22:26:18.938Z,8.50
2022-09-30T22:28:48.554Z,8.13
2022-09-30T22:31:24.059Z,8.57
2022-09-30T22:34:12.443Z,9.40
2022-09-30T22:36:58.538Z,8.50
2022-09-30T22:39:29.307Z,9.03
2022-09-30T22:41:59.178Z,8.97
2022-09-30T22:44:29.361Z,8.83
2022-09-30T22:47:00.952Z,9.67
2022-09-30T22:49:32.690Z,9.70
2022-09-30T22:52:02.076Z,9.20
2022-09-30T22:54:32.316Z,9.63
2022-09-30T22:57:00.562Z,9.23
2022-09-30T22:59:30.674Z,9.60
2022-09-30T23:02:05.194Z,9.30
2022-09-30T23:04:33.884Z,9.43
2022-09-30T23:09:47.878Z,10.00
2022-09-30T23:12:19.017Z,10.03
2022-09-30T23:14:48.009Z,10.00
2022-09-30T23:17:18.245Z,9.63
2022-09-30T23:19:46.790Z,9.77
2022-09-30T23:22:16.054Z,9.50
2022-09-30T23:24:45.965Z,9.53
2022-09-30T23:27:17.593Z,9.57
2022-09-30T23:29:46.133Z,8.90
2022-09-30T23:32:16.798Z,8.50
2022-09-30T23:34:46.932Z,8.70
2022-09-30T23:37:16.208Z,9.53
2022-09-30T23:39:45.435Z,8.80
2022-09-30T23:42:14.059Z,9.17
2022-09-30T23:44:43.497Z,9.07
2022-09-30T23:47:21.703Z,8.70
2022-09-30T23:49:52.163Z,8.90
2022-09-30T23:52:21.871Z,9.07
2022-09-30T23:54:50.631Z,9.73
2022-09-30T23:57:19.012Z,9.97
2022-09-30T23:59:47.397Z,9.77
